createdAt,value
2023-04-24T00:02:07.848Z,67.15
2023-04-24T00:07:09.786Z,67.21
2023-04-24T00:12:11.112Z,67.13
2023-04-24T00:17:12.459Z,66.74
2023-04-24T00:22:15.506Z,66.80
2023-04-24T00:27:16.851Z,66.53
2023-04-24T00:32:18.972Z,66.71
2023-04-24T00:37:20.650Z,66.56
2023-04-24T00:42:22.005Z,66.91
2023-04-24T00:47:23.467Z,66.87
2023-04-24T00:52:25.248Z,66.81
2023-04-24T00:57:27.364Z,66.69
2023-04-24T01:02:28.843Z,66.79
2023-04-24T01:07:30.501Z,66.89
2023-04-24T01:12:31.872Z,67.22
2023-04-24T01:17:33.756Z,67.11
2023-04-24T01:22:35.709Z,66.89
2023-04-24T01:27:37.109Z,66.83
2023-04-24T01:32:39.581Z,66.75
2023-04-24T01:37:41.157Z,66.83
2023-04-24T01:42:43.482Z,66.87
2023-04-24T01:47:45.052Z,66.71
2023-04-24T01:52:46.489Z,66.83
2023-04-24T01:57:48.022Z,67.02
2023-04-24T02:02:50.239Z,66.87
2023-04-24T02:07:51.688Z,66.97
2023-04-24T02:12:53.091Z,66.87
2023-04-24T02:17:54.462Z,66.75
2023-04-24T02:22:56.075Z,66.82
2023-04-24T02:27:57.463Z,66.84
2023-04-24T02:32:58.833Z,66.91
2023-04-24T02:38:00.307Z,66.92
2023-04-24T02:43:01.771Z,66.60
2023-04-24T02:48:03.238Z,67.23
2023-04-24T02:53:04.804Z,67.38
2023-04-24T02:58:06.855Z,66.94
2023-04-24T03:03:08.344Z,66.94
2023-04-24T03:08:09.827Z,67.26
2023-04-24T03:13:11.177Z,67.25
2023-04-24T03:18:12.617Z,67.47
2023-04-24T03:23:14.073Z,67.46
2023-04-24T03:28:15.493Z,67.70
2023-04-24T03:33:16.866Z,67.72
2023-04-24T03:38:18.201Z,67.58
2023-04-24T03:43:19.557Z,68.11
2023-04-24T03:48:20.871Z,67.88
2023-04-24T03:53:22.715Z,68.13
2023-04-24T03:58:24.103Z,67.92
2023-04-24T04:03:26.418Z,68.21
2023-04-24T04:08:28.020Z,68.16
2023-04-24T04:13:29.345Z,67.47
2023-04-24T04:18:30.834Z,66.76
2023-04-24T04:23:32.991Z,66.40
2023-04-24T04:28:35.792Z,65.56
2023-04-24T04:33:39.076Z,65.49
2023-04-24T04:38:42.862Z,64.77
2023-04-24T04:43:44.465Z,64.23
2023-04-24T04:48:46.695Z,63.67
2023-04-24T04:53:48.003Z,63.55
2023-04-24T04:58:49.355Z,63.04
2023-04-24T05:03:50.843Z,62.80
2023-04-24T05:08:52.284Z,62.42
2023-04-24T05:13:53.635Z,62.02
2023-04-24T05:18:54.999Z,61.88
2023-04-24T05:23:56.333Z,61.88
2023-04-24T05:28:57.674Z,61.32
2023-04-24T05:33:59.065Z,61.84
2023-04-24T05:39:00.588Z,61.44
2023-04-24T05:44:02.007Z,61.21
2023-04-24T05:49:03.664Z,61.26
2023-04-24T05:54:05.065Z,61.65
2023-04-24T05:59:06.480Z,61.04
2023-04-24T06:04:08.238Z,60.16
2023-04-24T06:09:09.651Z,59.53
2023-04-24T06:14:11.088Z,59.17
2023-04-24T06:19:12.513Z,58.85
2023-04-24T06:24:15.413Z,58.47
2023-04-24T06:29:16.757Z,58.40
2023-04-24T06:34:18.109Z,58.71
2023-04-24T06:39:19.484Z,58.10
2023-04-24T06:44:21.003Z,57.79
2023-04-24T06:49:22.333Z,57.72
2023-04-24T06:54:23.732Z,58.04
2023-04-24T06:59:25.897Z,57.51
2023-04-24T07:04:27.535Z,57.55
2023-04-24T07:09:29.365Z,57.23
2023-04-24T07:14:30.818Z,57.10
2023-04-24T07:19:32.485Z,56.49
2023-04-24T07:24:33.966Z,56.36
2023-04-24T07:29:35.376Z,56.22
2023-04-24T07:34:36.769Z,55.08
2023-04-24T07:39:38.105Z,55.46
2023-04-24T07:44:39.430Z,54.66
2023-04-24T07:49:42.349Z,54.17
2023-04-24T07:54:44.212Z,54.24
2023-04-24T07:59:45.899Z,54.30
2023-04-24T08:04:47.521Z,53.88
2023-04-24T08:09:49.026Z,53.81
2023-04-24T08:14:50.528Z,53.51
2023-04-24T08:19:53.298Z,53.41
2023-04-24T08:24:55.467Z,52.78
2023-04-24T08:29:58.280Z,51.96
2023-04-24T08:35:00.320Z,51.03
2023-04-24T08:40:06.586Z,50.30
2023-04-24T08:45:08.557Z,50.19
2023-04-24T08:50:12.930Z,49.96
2023-04-24T08:55:15.791Z,49.72
2023-04-24T09:00:17.949Z,49.98
2023-04-24T09:05:21.372Z,49.66
2023-04-24T09:10:24.263Z,49.95
2023-04-24T09:15:25.805Z,50.10
2023-04-24T09:20:27.154Z,50.31
2023-04-24T09:25:37.085Z,50.64
2023-04-24T09:30:38.512Z,50.72
2023-04-24T09:35:44.408Z,51.16
2023-04-24T09:40:45.795Z,51.11
2023-04-24T09:45:47.226Z,50.91
2023-04-24T09:50:52.885Z,51.33
2023-04-24T09:55:54.432Z,51.60
2023-04-24T10:00:57.726Z,51.44
2023-04-24T10:06:00.736Z,51.62
2023-04-24T10:11:03.022Z,51.90
2023-04-24T10:16:05.232Z,52.20
2023-04-24T10:21:07.404Z,52.99
2023-04-24T10:26:10.678Z,55.63
2023-04-24T10:31:13.605Z,58.21
2023-04-24T10:36:16.522Z,60.39
2023-04-24T10:41:21.595Z,62.49
2023-04-24T10:46:23.199Z,64.20
2023-04-24T10:51:26.762Z,65.66
2023-04-24T10:56:28.262Z,66.73
2023-04-24T11:01:33.135Z,67.35
2023-04-24T11:06:37.031Z,68.56
2023-04-24T11:11:45.149Z,68.30
2023-04-24T11:16:53.706Z,67.27
2023-04-24T11:22:03.885Z,66.15
2023-04-24T11:27:05.244Z,64.95
2023-04-24T11:32:41.161Z,63.27
2023-04-24T11:37:45.276Z,61.08
2023-04-24T11:42:50.971Z,58.43
2023-04-24T11:47:52.673Z,57.41
2023-04-24T11:52:54.591Z,56.89
2023-04-24T11:58:00.536Z,56.61
2023-04-24T12:03:10.094Z,56.22
2023-04-24T12:08:11.722Z,54.74
2023-04-24T12:13:14.251Z,54.12
2023-04-24T12:18:18.004Z,51.47
2023-04-24T12:23:36.509Z,51.72
2023-04-24T12:28:39.693Z,52.72
2023-04-24T12:33:41.108Z,53.78
2023-04-24T12:38:45.433Z,53.22
2023-04-24T12:43:54.482Z,52.86
2023-04-24T12:48:55.916Z,52.94
2023-04-24T12:53:57.542Z,53.22
2023-04-24T12:58:59.021Z,53.68
2023-04-24T13:04:00.626Z,53.36
2023-04-24T13:09:02.110Z,53.32
2023-04-24T13:14:03.517Z,51.95
2023-04-24T13:19:05.033Z,49.89
2023-04-24T13:24:08.662Z,49.96
2023-04-24T13:29:10.289Z,49.00
2023-04-24T13:34:11.759Z,49.33
2023-04-24T13:39:13.855Z,48.56
2023-04-24T13:44:16.670Z,50.25
2023-04-24T13:49:18.086Z,50.11
2023-04-24T13:54:19.416Z,49.56
2023-04-24T13:59:22.546Z,49.14
2023-04-24T14:04:24.221Z,48.74
2023-04-24T14:09:25.748Z,49.18
2023-04-24T14:14:27.567Z,48.03
2023-04-24T14:19:28.892Z,46.15
2023-04-24T14:24:30.250Z,45.02
2023-04-24T14:29:32.342Z,41.98
2023-04-24T14:34:35.160Z,42.69
2023-04-24T14:39:36.540Z,43.18
2023-04-24T14:44:37.953Z,43.46
2023-04-24T14:49:39.326Z,43.36
2023-04-24T14:54:40.959Z,42.48
2023-04-24T14:59:42.382Z,43.22
2023-04-24T15:04:44.108Z,42.51
2023-04-24T15:09:48.030Z,42.39
2023-04-24T15:14:49.472Z,42.09
2023-04-24T15:19:50.849Z,42.04
2023-04-24T15:24:52.170Z,42.50
2023-04-24T15:29:54.554Z,42.77
2023-04-24T15:35:07.088Z,42.68
2023-04-24T15:40:12.121Z,43.54
2023-04-24T15:45:14.911Z,43.66
2023-04-24T15:50:20.429Z,43.68
2023-04-24T15:55:21.871Z,42.87
2023-04-24T16:00:23.362Z,42.18
2023-04-24T16:05:24.696Z,41.80
2023-04-24T16:10:26.733Z,41.71
2023-04-24T16:15:28.226Z,41.46
2023-04-24T16:20:29.575Z,41.21
2023-04-24T16:25:31.042Z,41.31
2023-04-24T16:30:32.475Z,40.99
2023-04-24T16:35:33.826Z,40.68
2023-04-24T16:40:35.297Z,41.01
2023-04-24T16:45:36.629Z,41.10
2023-04-24T16:50:38.123Z,41.57
2023-04-24T16:55:39.490Z,41.58
2023-04-24T17:00:41.036Z,41.75
2023-04-24T17:05:42.473Z,42.04
2023-04-24T17:10:43.855Z,42.46
2023-04-24T17:15:45.293Z,42.49
2023-04-24T17:20:46.606Z,42.10
2023-04-24T17:25:48.850Z,42.39
2023-04-24T17:30:50.264Z,42.64
2023-04-24T17:35:51.730Z,43.14
2023-04-24T17:40:53.277Z,43.71
2023-04-24T17:45:59.849Z,44.09
2023-04-24T17:51:01.235Z,44.26
2023-04-24T17:56:03.796Z,44.18
2023-04-24T18:01:05.508Z,44.79
2023-04-24T18:06:07.041Z,44.67
2023-04-24T18:11:08.394Z,45.00
2023-04-24T18:16:09.825Z,46.00
2023-04-24T18:21:11.334Z,46.29
2023-04-24T18:26:17.021Z,45.95
2023-04-24T18:31:18.494Z,46.37
2023-04-24T18:36:20.223Z,47.73
2023-04-24T18:41:21.567Z,49.03
2023-04-24T18:46:22.919Z,50.02
2023-04-24T18:51:24.348Z,50.81
2023-04-24T18:56:25.727Z,50.83
2023-04-24T19:01:27.210Z,51.77
2023-04-24T19:06:28.680Z,52.53
2023-04-24T19:11:30.211Z,53.55
2023-04-24T19:16:31.627Z,54.18
2023-04-24T19:21:34.074Z,55.01
2023-04-24T19:26:35.480Z,57.07
2023-04-24T19:31:36.847Z,58.90
2023-04-24T19:36:38.293Z,60.96
2023-04-24T19:41:39.701Z,62.79
2023-04-24T19:46:41.156Z,64.10
2023-04-24T19:51:42.579Z,64.87
2023-04-24T19:56:44.266Z,65.04
2023-04-24T20:01:45.901Z,64.74
2023-04-24T20:06:47.433Z,64.34
2023-04-24T20:11:51.227Z,64.45
2023-04-24T20:16:54.227Z,63.74
2023-04-24T20:21:55.661Z,63.96
2023-04-24T20:26:57.037Z,64.07
2023-04-24T20:31:58.484Z,65.18
2023-04-24T20:36:59.871Z,65.32
2023-04-24T20:42:01.241Z,64.99
2023-04-24T20:47:02.760Z,64.84
2023-04-24T20:52:04.277Z,65.38
2023-04-24T20:57:05.679Z,65.31
2023-04-24T21:02:07.406Z,65.91
2023-04-24T21:07:10.193Z,66.08
2023-04-24T21:12:11.651Z,65.32
2023-04-24T21:17:13.003Z,65.48
2023-04-24T21:22:14.398Z,65.55
2023-04-24T21:27:15.803Z,65.35
2023-04-24T21:32:17.243Z,65.38
2023-04-24T21:37:18.611Z,65.98
2023-04-24T21:42:19.985Z,65.87
2023-04-24T21:47:21.353Z,66.33
2023-04-24T21:52:22.859Z,66.03
2023-04-24T21:57:24.245Z,66.35
2023-04-24T22:02:25.681Z,66.72
2023-04-24T22:07:27.131Z,67.21
2023-04-24T22:12:28.503Z,67.26
2023-04-24T22:17:30.328Z,67.32
2023-04-24T22:22:31.739Z,67.93
2023-04-24T22:27:35.544Z,68.79
2023-04-24T22:32:37.342Z,69.91
2023-04-24T22:37:39.232Z,70.41
2023-04-24T22:42:40.587Z,70.54
2023-04-24T22:47:42.089Z,70.90
2023-04-24T22:52:44.011Z,71.14
2023-04-24T22:57:45.611Z,71.47
2023-04-24T23:02:47.098Z,71.67
2023-04-24T23:07:48.510Z,71.71
2023-04-24T23:12:50.202Z,71.95
2023-04-24T23:17:51.580Z,72.33
2023-04-24T23:22:53.496Z,72.23
2023-04-24T23:27:55.005Z,72.32
2023-04-24T23:32:56.489Z,72.36
2023-04-24T23:37:58.022Z,72.69
2023-04-24T23:43:06.865Z,72.75
2023-04-24T23:48:09.164Z,73.13
2023-04-24T23:53:10.773Z,73.08
2023-04-24T23:58:12.101Z,73.05
